createdAt,value
2017-11-09T00:03:59.670Z,96.52
2017-11-09T00:06:27.245Z,96.41
2017-11-09T00:08:54.817Z,96.49
2017-11-09T00:11:22.774Z,96.58
2017-11-09T00:13:50.313Z,96.46
2017-11-09T00:16:17.861Z,96.57
2017-11-09T00:18:45.435Z,96.59
2017-11-09T00:21:13.012Z,96.65
2017-11-09T00:23:40.579Z,96.63
2017-11-09T00:26:08.143Z,96.65
2017-11-09T00:28:35.984Z,96.54
2017-11-09T00:31:03.513Z,96.49
2017-11-09T00:33:31.061Z,96.48
2017-11-09T00:35:58.661Z,96.51
2017-11-09T00:38:26.169Z,96.38
2017-11-09T00:40:53.837Z,96.45
2017-11-09T00:43:21.410Z,96.37
2017-11-09T00:45:48.959Z,96.36
2017-11-09T00:48:16.525Z,96.33
2017-11-09T00:50:44.080Z,96.29
2017-11-09T00:53:11.637Z,96.41
2017-11-09T00:55:39.175Z,96.40
2017-11-09T00:58:06.734Z,96.45
2017-11-09T01:00:34.265Z,96.38
2017-11-09T01:03:01.837Z,96.40
2017-11-09T01:05:29.399Z,96.41
2017-11-09T01:07:57.168Z,96.47
2017-11-09T01:10:24.758Z,96.53
2017-11-09T01:12:52.317Z,96.46
2017-11-09T01:15:20.250Z,96.54
2017-11-09T01:17:47.799Z,96.63
2017-11-09T01:20:15.341Z,96.66
2017-11-09T01:22:42.926Z,96.61
2017-11-09T01:25:10.464Z,96.55
2017-11-09T01:27:38.147Z,96.58
2017-11-09T01:30:05.748Z,96.64
2017-11-09T01:32:33.342Z,96.64
2017-11-09T01:35:00.884Z,96.71
2017-11-09T01:37:28.425Z,96.68
2017-11-09T01:39:55.989Z,96.80
2017-11-09T01:42:23.539Z,96.79
2017-11-09T01:44:51.111Z,96.77
2017-11-09T01:47:18.666Z,96.75
2017-11-09T01:49:46.233Z,96.85
2017-11-09T01:52:13.774Z,96.88
2017-11-09T01:54:41.701Z,96.91
2017-11-09T01:57:09.259Z,96.91
2017-11-09T01:59:36.802Z,96.84
2017-11-09T02:02:04.352Z,96.87
2017-11-09T02:04:32.043Z,96.91
2017-11-09T02:06:59.593Z,96.90
2017-11-09T02:09:27.140Z,96.94
2017-11-09T02:11:55.126Z,96.97
2017-11-09T02:14:22.684Z,97.04
2017-11-09T02:16:50.282Z,96.98
2017-11-09T02:19:17.873Z,97.07
2017-11-09T02:21:45.406Z,97.04
2017-11-09T02:24:13.135Z,97.02
2017-11-09T02:26:40.680Z,97.00
2017-11-09T02:29:08.616Z,97.15
2017-11-09T02:31:36.183Z,97.25
2017-11-09T02:34:03.726Z,97.23
2017-11-09T02:36:31.311Z,97.28
2017-11-09T02:38:58.898Z,97.29
2017-11-09T02:41:26.625Z,97.34
2017-11-09T02:43:54.180Z,97.37
2017-11-09T02:46:22.112Z,97.31
2017-11-09T02:48:49.702Z,97.26
2017-11-09T02:51:17.262Z,97.25
2017-11-09T02:53:44.854Z,97.19
2017-11-09T02:56:12.479Z,97.13
2017-11-09T02:58:40.054Z,97.10
2017-11-09T03:01:07.593Z,97.18
2017-11-09T03:06:09.288Z,97.26
2017-11-09T03:08:37.127Z,97.27
2017-11-09T03:11:04.668Z,97.24
2017-11-09T03:13:32.215Z,97.19
2017-11-09T03:15:59.888Z,97.19
2017-11-09T03:18:27.447Z,97.22
2017-11-09T03:20:55.027Z,97.21
2017-11-09T03:23:22.581Z,97.20
2017-11-09T03:25:50.521Z,97.19
2017-11-09T03:28:18.056Z,97.16
2017-11-09T03:30:45.695Z,97.10
2017-11-09T03:33:13.410Z,97.04
2017-11-09T03:35:40.960Z,97.14
2017-11-09T03:38:08.536Z,97.08
2017-11-09T03:40:36.116Z,97.09
2017-11-09T03:43:04.049Z,97.06
2017-11-09T03:45:31.669Z,97.06
2017-11-09T03:47:59.211Z,97.00
2017-11-09T03:50:26.777Z,96.98
2017-11-09T03:52:54.393Z,97.08
2017-11-09T03:55:21.966Z,97.10
2017-11-09T03:57:49.500Z,97.15
2017-11-09T04:00:17.404Z,97.14
2017-11-09T04:02:45.003Z,97.06
2017-11-09T04:05:12.587Z,97.10
2017-11-09T04:07:40.296Z,97.14
2017-11-09T04:10:08.003Z,97.04
2017-11-09T04:12:35.655Z,97.03
2017-11-09T04:15:03.404Z,97.08
2017-11-09T04:17:31.344Z,97.11
2017-11-09T04:19:58.908Z,97.09
2017-11-09T04:22:26.450Z,97.10
2017-11-09T04:24:54.038Z,97.15
2017-11-09T04:27:21.606Z,97.19
2017-11-09T04:29:49.339Z,97.15
2017-11-09T04:32:16.901Z,97.06
2017-11-09T04:34:44.482Z,97.01
2017-11-09T04:37:12.036Z,96.97
2017-11-09T04:39:39.580Z,96.96
2017-11-09T04:42:07.146Z,96.97
2017-11-09T04:44:34.716Z,96.88
2017-11-09T04:47:02.279Z,96.87
2017-11-09T04:49:29.820Z,96.85
2017-11-09T04:51:57.374Z,96.82
2017-11-09T04:54:24.909Z,96.74
2017-11-09T04:56:52.548Z,96.76
2017-11-09T04:59:20.090Z,96.73
2017-11-09T05:01:47.645Z,96.72
2017-11-09T05:04:15.213Z,96.71
2017-11-09T05:06:42.755Z,96.71
2017-11-09T05:09:10.501Z,96.71
2017-11-09T05:11:38.112Z,96.74
2017-11-09T05:14:05.931Z,96.73
2017-11-09T05:16:33.479Z,96.72
2017-11-09T05:19:01.034Z,96.77
2017-11-09T05:21:28.636Z,96.81
2017-11-09T05:23:56.180Z,96.77
2017-11-09T05:26:23.744Z,96.80
2017-11-09T05:28:51.280Z,96.77
2017-11-09T05:31:19.144Z,96.72
2017-11-09T05:33:46.700Z,96.79
2017-11-09T05:36:14.268Z,96.91
2017-11-09T05:38:41.825Z,96.88
2017-11-09T05:41:09.376Z,96.86
2017-11-09T05:43:36.953Z,96.83
2017-11-09T05:46:04.514Z,96.80
2017-11-09T05:48:32.092Z,96.78
2017-11-09T05:50:59.814Z,96.78
2017-11-09T05:53:27.342Z,96.76
2017-11-09T05:55:54.900Z,96.85
2017-11-09T05:58:22.457Z,96.89
2017-11-09T06:00:50.425Z,96.85
2017-11-09T06:03:18.087Z,96.79
2017-11-09T06:05:45.755Z,96.80
2017-11-09T06:08:13.293Z,96.90
2017-11-09T06:10:40.842Z,96.90
2017-11-09T06:13:08.439Z,96.86
2017-11-09T06:15:36.013Z,96.90
2017-11-09T06:18:03.605Z,96.90
2017-11-09T06:20:31.141Z,96.95
2017-11-09T06:22:58.802Z,96.95
2017-11-09T06:25:26.347Z,97.03
2017-11-09T06:27:53.911Z,97.11
2017-11-09T06:30:21.456Z,97.13
2017-11-09T06:32:49.068Z,97.09
2017-11-09T06:35:16.642Z,97.08
2017-11-09T06:37:44.191Z,97.05
2017-11-09T06:40:12.071Z,97.04
2017-11-09T06:42:39.620Z,97.04
2017-11-09T06:45:07.161Z,96.98
2017-11-09T06:47:34.757Z,96.85
2017-11-09T06:50:02.306Z,96.80
2017-11-09T06:52:29.867Z,96.77
2017-11-09T06:54:57.413Z,96.66
2017-11-09T06:57:25.008Z,96.58
2017-11-09T06:59:53.337Z,96.66
2017-11-09T07:02:20.908Z,96.62
2017-11-09T07:04:48.461Z,96.68
2017-11-09T07:07:16.023Z,96.64
2017-11-09T07:09:43.605Z,96.65
2017-11-09T07:12:11.175Z,96.71
2017-11-09T07:14:39.336Z,96.62
2017-11-09T07:17:07.086Z,96.53
2017-11-09T07:19:34.666Z,96.54
2017-11-09T07:22:02.256Z,96.50
2017-11-09T07:24:29.822Z,96.45
2017-11-09T07:26:57.670Z,96.49
2017-11-09T07:29:25.375Z,96.58
2017-11-09T07:31:53.051Z,96.50
2017-11-09T07:34:20.761Z,96.38
2017-11-09T07:36:48.301Z,96.44
2017-11-09T07:39:15.880Z,96.37
2017-11-09T07:41:43.425Z,96.45
2017-11-09T07:44:11.105Z,96.32
2017-11-09T07:46:38.645Z,96.27
2017-11-09T07:49:06.219Z,96.27
2017-11-09T07:51:33.785Z,96.27
2017-11-09T07:54:01.422Z,96.33
2017-11-09T07:56:28.996Z,96.33
2017-11-09T07:58:56.552Z,96.32
2017-11-09T08:01:24.410Z,96.24
2017-11-09T08:03:52.044Z,96.28
2017-11-09T08:06:19.616Z,96.23
2017-11-09T08:08:47.215Z,96.22
2017-11-09T08:11:14.772Z,96.20
2017-11-09T08:13:42.336Z,96.16
2017-11-09T08:16:09.876Z,95.98
2017-11-09T08:18:37.882Z,95.98
2017-11-09T08:21:05.416Z,95.91
2017-11-09T08:23:33.013Z,95.68
2017-11-09T08:26:02.125Z,95.69
2017-11-09T08:28:33.072Z,95.65
2017-11-09T08:31:02.072Z,95.67
2017-11-09T08:33:31.155Z,95.78
2017-11-09T08:35:58.732Z,95.63
2017-11-09T08:38:26.296Z,95.47
2017-11-09T08:40:53.906Z,95.27
2017-11-09T08:43:21.486Z,95.17
2017-11-09T08:45:49.066Z,95.26
2017-11-09T08:48:16.612Z,95.30
2017-11-09T08:50:44.181Z,95.07
2017-11-09T08:53:11.766Z,94.82
2017-11-09T08:55:39.443Z,94.71
2017-11-09T08:58:07.039Z,94.43
2017-11-09T09:00:34.618Z,94.42
2017-11-09T09:03:02.179Z,94.42
2017-11-09T09:05:29.774Z,93.98
2017-11-09T09:07:57.340Z,93.85
2017-11-09T09:10:24.921Z,94.01
2017-11-09T09:12:52.498Z,93.95
2017-11-09T09:15:20.113Z,93.71
2017-11-09T09:17:47.662Z,93.67
2017-11-09T09:20:16.047Z,93.42
2017-11-09T09:22:43.583Z,93.06
2017-11-09T09:25:11.666Z,93.11
2017-11-09T09:27:39.237Z,92.80
2017-11-09T09:30:09.806Z,92.73
2017-11-09T09:32:47.207Z,92.52
2017-11-09T09:38:38.777Z,92.25
2017-11-09T09:41:06.383Z,91.91
2017-11-09T09:43:33.933Z,92.10
2017-11-09T09:46:01.913Z,91.61
2017-11-09T09:48:29.461Z,91.88
2017-11-09T09:50:57.002Z,91.80
2017-11-09T09:53:24.668Z,91.79
2017-11-09T09:55:52.247Z,91.39
2017-11-09T09:58:19.809Z,91.34
2017-11-09T10:00:47.349Z,91.44
2017-11-09T10:03:14.935Z,91.39
2017-11-09T10:05:42.488Z,90.90
2017-11-09T10:08:10.042Z,90.75
2017-11-09T10:10:37.622Z,90.91
2017-11-09T10:13:05.167Z,90.09
2017-11-09T10:15:32.870Z,90.22
2017-11-09T10:18:00.416Z,88.40
2017-11-09T10:20:28.101Z,88.41
2017-11-09T10:22:55.683Z,89.08
2017-11-09T10:25:23.242Z,89.21
2017-11-09T10:27:50.847Z,89.27
2017-11-09T10:30:18.412Z,89.25
2017-11-09T10:32:46.001Z,89.43
2017-11-09T10:35:13.561Z,89.19
2017-11-09T10:37:41.208Z,87.99
2017-11-09T10:40:08.774Z,88.42
2017-11-09T10:42:36.338Z,88.56
2017-11-09T10:45:03.915Z,87.61
2017-11-09T10:47:31.463Z,87.77
2017-11-09T10:49:59.041Z,87.72
2017-11-09T10:52:26.594Z,87.37
2017-11-09T10:54:55.401Z,86.00
2017-11-09T10:57:23.003Z,85.08
2017-11-09T10:59:50.568Z,84.72
2017-11-09T11:02:18.130Z,83.36
2017-11-09T11:04:46.030Z,84.23
2017-11-09T11:07:13.613Z,85.39
2017-11-09T11:09:41.163Z,84.85
2017-11-09T11:12:08.739Z,84.63
2017-11-09T11:14:36.303Z,84.28
2017-11-09T11:17:03.873Z,85.10
2017-11-09T11:19:31.534Z,84.43
2017-11-09T11:21:59.124Z,84.07
2017-11-09T11:24:26.697Z,84.49
2017-11-09T11:26:54.250Z,84.56
2017-11-09T11:29:21.858Z,84.23
2017-11-09T11:31:49.419Z,84.00
2017-11-09T11:34:16.978Z,84.57
2017-11-09T11:36:44.551Z,85.12
2017-11-09T11:39:12.179Z,84.26
2017-11-09T11:41:39.733Z,83.67
2017-11-09T11:44:07.320Z,84.10
2017-11-09T11:46:34.903Z,83.02
2017-11-09T11:49:02.477Z,82.87
2017-11-09T11:51:30.089Z,83.11
2017-11-09T11:53:57.657Z,83.74
2017-11-09T11:56:25.192Z,84.01
2017-11-09T11:58:52.996Z,84.49
2017-11-09T12:01:20.552Z,83.96
2017-11-09T12:03:48.112Z,83.45
2017-11-09T12:06:15.687Z,83.66
2017-11-09T12:08:43.273Z,83.79
2017-11-09T12:11:10.867Z,84.03
2017-11-09T12:13:38.583Z,83.54
2017-11-09T12:16:06.272Z,83.63
2017-11-09T12:18:33.825Z,83.79
2017-11-09T12:21:01.409Z,83.84
2017-11-09T12:23:28.965Z,84.27
2017-11-09T12:25:56.551Z,84.03
2017-11-09T12:28:24.236Z,82.81
2017-11-09T12:30:51.798Z,83.21
2017-11-09T12:33:19.424Z,83.33
2017-11-09T12:35:46.981Z,83.59
2017-11-09T12:38:14.563Z,82.86
2017-11-09T12:40:42.378Z,82.00
2017-11-09T12:43:09.938Z,83.04
2017-11-09T12:45:37.514Z,83.16
2017-11-09T12:48:05.097Z,83.36
2017-11-09T12:50:32.670Z,83.16
2017-11-09T12:53:00.219Z,82.93
2017-11-09T12:55:28.095Z,82.84
2017-11-09T12:57:55.647Z,82.48
2017-11-09T13:00:23.231Z,82.87
2017-11-09T13:02:50.804Z,83.14
2017-11-09T13:05:18.369Z,82.46
2017-11-09T13:07:46.519Z,83.13
2017-11-09T13:10:14.082Z,83.34
2017-11-09T13:12:41.726Z,83.43
2017-11-09T13:15:09.270Z,83.05
2017-11-09T13:17:36.881Z,83.32
2017-11-09T13:20:04.488Z,83.74
2017-11-09T13:22:32.069Z,83.87
2017-11-09T13:24:59.655Z,83.87
2017-11-09T13:27:27.253Z,84.30
2017-11-09T13:29:54.858Z,84.55
2017-11-09T13:32:22.419Z,84.96
2017-11-09T13:34:49.977Z,85.22
2017-11-09T13:37:17.671Z,85.19
2017-11-09T13:39:45.234Z,85.54
2017-11-09T13:42:12.872Z,85.56
2017-11-09T13:44:40.423Z,85.15
2017-11-09T13:47:08.022Z,85.24
2017-11-09T13:49:35.605Z,85.23
2017-11-09T13:52:03.157Z,84.98
2017-11-09T13:54:30.748Z,84.08
2017-11-09T13:56:58.312Z,84.10
2017-11-09T13:59:25.874Z,84.16
2017-11-09T14:01:53.405Z,84.61
2017-11-09T14:04:20.973Z,84.76
2017-11-09T14:06:48.507Z,84.58
2017-11-09T14:09:16.056Z,85.21
2017-11-09T14:11:43.646Z,85.16
2017-11-09T14:14:11.313Z,84.86
2017-11-09T14:16:38.882Z,84.51
2017-11-09T14:19:06.448Z,84.96
2017-11-09T14:21:34.102Z,85.36
2017-11-09T14:24:01.688Z,85.10
2017-11-09T14:26:29.329Z,85.53
2017-11-09T14:28:56.891Z,85.09
2017-11-09T14:31:24.462Z,85.49
2017-11-09T14:33:52.154Z,85.56
2017-11-09T14:36:19.746Z,85.84
2017-11-09T14:38:51.130Z,85.77
2017-11-09T14:41:18.718Z,86.22
2017-11-09T14:43:46.294Z,86.08
2017-11-09T14:46:14.971Z,86.20
2017-11-09T14:48:42.586Z,86.00
2017-11-09T14:51:10.475Z,86.24
2017-11-09T14:53:38.111Z,86.48
2017-11-09T14:56:05.687Z,86.60
2017-11-09T14:58:33.285Z,86.54
2017-11-09T15:01:00.888Z,86.50
2017-11-09T15:03:28.473Z,86.25
2017-11-09T15:05:56.115Z,86.65
2017-11-09T15:08:23.721Z,86.60
2017-11-09T15:10:51.287Z,86.88
2017-11-09T15:13:18.845Z,86.69
2017-11-09T15:15:51.954Z,86.82
2017-11-09T15:18:19.526Z,87.03
2017-11-09T15:20:47.144Z,86.73
2017-11-09T15:23:14.754Z,86.76
2017-11-09T15:25:42.452Z,86.94
2017-11-09T15:28:10.025Z,87.14
2017-11-09T15:30:37.578Z,87.26
2017-11-09T15:33:07.055Z,87.26
2017-11-09T15:35:37.372Z,87.25
2017-11-09T15:38:04.954Z,86.89
2017-11-09T15:40:32.543Z,86.81
2017-11-09T15:43:00.142Z,86.78
2017-11-09T15:45:27.716Z,86.81
2017-11-09T15:47:55.273Z,86.93
2017-11-09T15:50:22.873Z,86.80
2017-11-09T15:52:50.448Z,86.77
2017-11-09T15:55:18.052Z,87.04
2017-11-09T15:57:45.626Z,87.29
2017-11-09T16:00:13.235Z,87.42
2017-11-09T16:02:40.799Z,87.67
2017-11-09T16:05:08.352Z,87.92
2017-11-09T16:07:38.935Z,87.94
2017-11-09T16:10:06.515Z,88.03
2017-11-09T16:12:34.133Z,88.05
2017-11-09T16:15:01.875Z,88.11
2017-11-09T16:17:29.423Z,88.19
2017-11-09T16:19:56.998Z,88.34
2017-11-09T16:22:24.563Z,88.29
2017-11-09T16:24:53.010Z,88.33
2017-11-09T16:27:23.532Z,88.41
2017-11-09T16:29:51.170Z,88.50
2017-11-09T16:32:18.742Z,88.67
2017-11-09T16:34:46.327Z,88.48
2017-11-09T16:37:13.937Z,88.60
2017-11-09T16:39:41.513Z,88.58
2017-11-09T16:42:09.123Z,88.80
2017-11-09T16:44:37.250Z,88.98
2017-11-09T16:47:04.918Z,89.12
2017-11-09T16:49:32.490Z,89.20
2017-11-09T16:52:00.374Z,89.22
2017-11-09T16:54:27.929Z,89.29
2017-11-09T16:56:55.500Z,89.34
2017-11-09T16:59:23.131Z,89.58
2017-11-09T17:01:50.712Z,89.75
2017-11-09T17:04:18.300Z,89.73
2017-11-09T17:06:46.125Z,89.80
2017-11-09T17:09:13.718Z,89.80
2017-11-09T17:11:41.294Z,89.71
2017-11-09T17:14:08.872Z,89.73
2017-11-09T17:16:36.437Z,89.92
2017-11-09T17:19:04.001Z,90.14
2017-11-09T17:21:31.634Z,90.31
2017-11-09T17:23:59.325Z,90.44
2017-11-09T17:26:26.982Z,90.86
2017-11-09T17:28:54.576Z,90.82
2017-11-09T17:31:22.164Z,90.72
2017-11-09T17:33:49.738Z,90.80
2017-11-09T17:36:17.352Z,90.91
2017-11-09T17:38:44.956Z,91.07
2017-11-09T17:41:12.512Z,91.14
2017-11-09T17:43:40.228Z,91.21
2017-11-09T17:46:08.169Z,91.29
2017-11-09T17:48:35.839Z,91.37
2017-11-09T17:51:03.662Z,91.26
2017-11-09T17:53:32.025Z,91.27
2017-11-09T17:56:08.073Z,91.31
2017-11-09T17:58:38.616Z,91.23
2017-11-09T18:01:06.268Z,91.25
2017-11-09T18:03:35.625Z,91.32
2017-11-09T18:06:03.214Z,91.21
2017-11-09T18:08:30.881Z,91.18
2017-11-09T18:10:58.478Z,91.16
2017-11-09T18:13:26.112Z,91.29
2017-11-09T18:15:53.710Z,91.24
2017-11-09T18:18:21.310Z,91.14
2017-11-09T18:20:48.881Z,91.15
2017-11-09T18:23:16.499Z,91.28
2017-11-09T18:25:44.147Z,91.39
2017-11-09T18:28:11.727Z,91.32
2017-11-09T18:30:39.632Z,91.27
2017-11-09T18:33:07.200Z,91.24
2017-11-09T18:35:35.008Z,91.30
2017-11-09T18:38:02.603Z,91.37
2017-11-09T18:40:30.286Z,91.29
2017-11-09T18:42:57.925Z,91.21
2017-11-09T18:45:25.553Z,91.19
2017-11-09T18:47:53.176Z,91.18
2017-11-09T18:50:20.775Z,91.13
2017-11-09T18:52:48.363Z,91.01
2017-11-09T18:55:16.145Z,91.02
2017-11-09T18:57:43.780Z,91.05
2017-11-09T19:00:11.383Z,91.04
2017-11-09T19:02:38.989Z,91.12
2017-11-09T19:05:06.781Z,91.11
2017-11-09T19:07:34.435Z,91.10
2017-11-09T19:10:02.119Z,91.15
2017-11-09T19:12:29.762Z,91.08
2017-11-09T19:14:57.424Z,91.12
2017-11-09T19:17:25.146Z,91.04
2017-11-09T19:19:52.796Z,91.36
2017-11-09T19:22:20.421Z,91.50
2017-11-09T19:24:48.052Z,91.65
2017-11-09T19:27:15.693Z,91.83
2017-11-09T19:29:43.283Z,91.96
2017-11-09T19:32:10.961Z,91.96
2017-11-09T19:34:38.907Z,91.84
2017-11-09T19:37:06.731Z,91.78
2017-11-09T19:39:34.424Z,91.96
2017-11-09T19:42:02.106Z,92.01
2017-11-09T19:44:29.821Z,92.00
2017-11-09T19:46:57.531Z,92.02
2017-11-09T19:49:25.390Z,92.07
2017-11-09T19:51:53.221Z,92.04
2017-11-09T19:54:21.150Z,92.03
2017-11-09T19:56:48.896Z,91.93
2017-11-09T19:59:16.750Z,91.87
2017-11-09T20:01:44.727Z,91.81
2017-11-09T20:04:12.614Z,91.77
2017-11-09T20:06:40.438Z,91.65
2017-11-09T20:09:08.216Z,91.64
2017-11-09T20:11:36.531Z,91.67
2017-11-09T20:14:04.261Z,91.80
2017-11-09T20:16:32.951Z,91.76
2017-11-09T20:19:00.950Z,91.62
2017-11-09T20:21:28.759Z,91.52
2017-11-09T20:23:56.529Z,91.51
2017-11-09T20:26:24.295Z,91.53
2017-11-09T20:28:52.286Z,91.63
2017-11-09T20:31:20.297Z,91.53
2017-11-09T20:33:48.237Z,91.48
2017-11-09T20:36:15.960Z,91.45
2017-11-09T20:38:43.870Z,91.34
2017-11-09T20:41:11.727Z,91.33
2017-11-09T20:43:39.792Z,91.38
2017-11-09T20:46:07.539Z,91.40
2017-11-09T20:48:35.437Z,91.35
2017-11-09T20:51:03.251Z,91.41
2017-11-09T20:53:30.924Z,91.63
2017-11-09T20:55:58.787Z,91.69
2017-11-09T20:58:26.647Z,91.71
2017-11-09T21:00:54.297Z,91.81
2017-11-09T21:03:22.088Z,91.79
2017-11-09T21:05:49.897Z,91.87
2017-11-09T21:08:17.491Z,91.88
2017-11-09T21:10:45.133Z,91.92
2017-11-09T21:13:12.730Z,91.97
2017-11-09T21:15:40.315Z,91.97
2017-11-09T21:18:07.957Z,91.92
2017-11-09T21:20:35.557Z,91.93
2017-11-09T21:23:03.167Z,91.94
2017-11-09T21:25:30.739Z,91.94
2017-11-09T21:27:58.353Z,91.85
2017-11-09T21:30:26.059Z,91.97
2017-11-09T21:32:53.683Z,91.89
2017-11-09T21:35:21.269Z,91.97
2017-11-09T21:37:48.875Z,91.93
2017-11-09T21:40:16.473Z,91.93
2017-11-09T21:42:44.099Z,91.91
2017-11-09T21:45:11.656Z,91.98
2017-11-09T21:47:39.306Z,92.02
2017-11-09T21:50:06.924Z,92.08
2017-11-09T21:52:34.512Z,92.12
2017-11-09T21:55:02.242Z,92.23
2017-11-09T21:57:29.800Z,92.22
2017-11-09T21:59:57.379Z,92.21
2017-11-09T22:02:24.934Z,92.26
2017-11-09T22:04:52.503Z,92.45
2017-11-09T22:07:20.107Z,92.54
2017-11-09T22:09:47.666Z,92.63
2017-11-09T22:12:15.232Z,92.62
2017-11-09T22:14:42.808Z,92.69
2017-11-09T22:17:10.437Z,92.73
2017-11-09T22:19:38.013Z,92.78
2017-11-09T22:22:05.583Z,92.81
2017-11-09T22:24:33.164Z,92.80
2017-11-09T22:27:00.843Z,92.94
2017-11-09T22:29:28.428Z,93.03
2017-11-09T22:31:56.138Z,93.00
2017-11-09T22:34:23.725Z,93.00
2017-11-09T22:36:51.357Z,93.09
2017-11-09T22:39:18.919Z,93.09
2017-11-09T22:41:46.511Z,93.14
2017-11-09T22:44:14.056Z,93.25
2017-11-09T22:46:41.655Z,93.31
2017-11-09T22:49:09.219Z,93.36
2017-11-09T22:51:36.803Z,93.42
2017-11-09T22:54:04.382Z,93.39
2017-11-09T22:56:31.927Z,93.37
2017-11-09T22:58:59.495Z,93.37
2017-11-09T23:01:27.068Z,93.33
2017-11-09T23:03:54.649Z,93.47
2017-11-09T23:06:22.261Z,93.62
2017-11-09T23:08:49.836Z,93.61
2017-11-09T23:11:17.374Z,93.60
2017-11-09T23:13:45.301Z,93.54
2017-11-09T23:16:12.896Z,93.57
2017-11-09T23:18:40.497Z,93.53
2017-11-09T23:21:08.122Z,93.52
2017-11-09T23:23:35.682Z,93.53
2017-11-09T23:26:03.236Z,93.56
2017-11-09T23:28:30.953Z,93.53
2017-11-09T23:30:58.481Z,93.53
2017-11-09T23:33:26.051Z,93.55
2017-11-09T23:35:53.622Z,93.50
2017-11-09T23:38:21.697Z,93.56
2017-11-09T23:40:49.247Z,93.53
2017-11-09T23:43:16.964Z,93.51
2017-11-09T23:45:44.533Z,93.55
2017-11-09T23:48:12.147Z,93.45
2017-11-09T23:50:39.727Z,93.48
2017-11-09T23:53:07.265Z,93.44
2017-11-09T23:55:35.166Z,93.46
2017-11-09T23:58:02.729Z,93.39
